עמוד ראשי
תמונות לווין תחזית 15-יוםאקליםתחזית ים סופות טרופיות ברקים שדות תעופהשאלות נפוצות עלון אודות
מזג אוויר : אירופה אפריקה אמריקה הצפונית אמריקה הדרומית אסיה אוסטרליה-אוקיאניה אחרים
שפות איש קשר

סלוניקי, יוון

קו רוחב: 40-31N, קו אורך: 022-58E, גובה: 8מטר


METAR: LGTS 222050Z 11005KT CAVOK 01/M02 Q1026 NOSIG
TAF: LGTS 221700Z 2218/2318 34012KT CAVOK BECMG 2300/2302 34015G25KT BECMG 2311/2313 34010KT

זמן: 23:16 (21:16 UTC)

תצפית מזג אוויר נוכחית

הדו"ח נערך לפני 26דקות, בשעה 20:50 UTC
רוח 5קשר מכיוון מזרח/דרום-מזרח
טמפרטורת 1°C
לחות 80%
לחץ 1026 hPa
ראות 10 קילומטר או יותר
ללא עננים שבסיסם נמוך מ 1500 רגל או קומולונימבוס

שנה יחידות

תחזית

הדו"ח נערך לפני 4 שעות ו 16דקות, בשעה 17:00 UTC
תחזית בתוקף מ 22 ב 18 UTC עד 23 ב 18 UTC
רוח 12קשר מכיוון צפון/צפון-מערב
ראות 10 קילומטר או יותר
ללא עננים שבסיסם נמוך מ 1500 רגל או קומולונימבוס
יעשה מ
23 ב 00 UTC עד 23 ב 02 UTC
רוח 15קשר מכיוון צפון/צפון-מערב עם משבים עד 25קשר
יעשה מ
23 ב 11 UTC עד 23 ב 13 UTC
רוח 10קשר מכיוון צפון/צפון-מערב
המידע באתר זה מותנה של תניית פטור
מזג אוויר : אירופה אפריקה אמריקה הצפונית אמריקה הדרומית אסיה אוסטרליה-אוקיאניה אחרים
תמונות לווין תחזית 15-יוםאקליםתחזית ים סופות טרופיות ברקים שדות תעופהשאלות נפוצות שפות איש קשר עלון אודות